sensor_id;sensor_type;location;lat;lon;timestamp;P1;durP1;ratioP1;P2;durP2;ratioP2
14048;SDS011;7099;53.922;10.728;2023-06-10T00:00:28;5.47;;;2.50;;
14048;SDS011;7099;53.922;10.728;2023-06-10T00:04:35;8.73;;;2.57;;
14048;SDS011;7099;53.922;10.728;2023-06-10T00:08:41;4.70;;;2.60;;
14048;SDS011;7099;53.922;10.728;2023-06-10T00:12:47;8.13;;;2.97;;
14048;SDS011;7099;53.922;10.728;2023-06-10T00:16:52;8.70;;;3.30;;
14048;SDS011;7099;53.922;10.728;2023-06-10T00:20:58;4.77;;;2.63;;
14048;SDS011;7099;53.922;10.728;2023-06-10T00:25:09;5.70;;;3.20;;
14048;SDS011;7099;53.922;10.728;2023-06-10T00:29:16;7.53;;;3.00;;
14048;SDS011;7099;53.922;10.728;2023-06-10T00:33:22;5.50;;;2.60;;
14048;SDS011;7099;53.922;10.728;2023-06-10T00:37:27;12.17;;;2.93;;
14048;SDS011;7099;53.922;10.728;2023-06-10T00:41:33;9.90;;;3.17;;
14048;SDS011;7099;53.922;10.728;2023-06-10T00:45:39;6.17;;;2.67;;
14048;SDS011;7099;53.922;10.728;2023-06-10T00:49:45;7.13;;;2.87;;
14048;SDS011;7099;53.922;10.728;2023-06-10T00:53:52;11.83;;;2.77;;
14048;SDS011;7099;53.922;10.728;2023-06-10T00:57:58;4.97;;;2.50;;
14048;SDS011;7099;53.922;10.728;2023-06-10T01:02:05;7.10;;;2.87;;
14048;SDS011;7099;53.922;10.728;2023-06-10T01:10:36;7.70;;;2.30;;
14048;SDS011;7099;53.922;10.728;2023-06-10T01:14:46;9.33;;;3.13;;
14048;SDS011;7099;53.922;10.728;2023-06-10T01:18:53;12.67;;;3.00;;
14048;SDS011;7099;53.922;10.728;2023-06-10T01:22:59;9.20;;;2.40;;
14048;SDS011;7099;53.922;10.728;2023-06-10T01:27:09;14.63;;;2.67;;
14048;SDS011;7099;53.922;10.728;2023-06-10T01:35:41;7.47;;;2.40;;
14048;SDS011;7099;53.922;10.728;2023-06-10T01:39:49;9.83;;;2.30;;
14048;SDS011;7099;53.922;10.728;2023-06-10T01:43:55;9.63;;;2.30;;
14048;SDS011;7099;53.922;10.728;2023-06-10T01:48:00;9.70;;;2.47;;
14048;SDS011;7099;53.922;10.728;2023-06-10T01:52:06;11.20;;;2.60;;
14048;SDS011;7099;53.922;10.728;2023-06-10T01:56:12;8.53;;;2.23;;
14048;SDS011;7099;53.922;10.728;2023-06-10T02:00:23;13.83;;;2.97;;
14048;SDS011;7099;53.922;10.728;2023-06-10T02:04:29;11.70;;;2.43;;
14048;SDS011;7099;53.922;10.728;2023-06-10T02:08:34;9.03;;;2.50;;
14048;SDS011;7099;53.922;10.728;2023-06-10T02:12:40;4.30;;;2.10;;
14048;SDS011;7099;53.922;10.728;2023-06-10T02:16:46;9.70;;;2.67;;
14048;SDS011;7099;53.922;10.728;2023-06-10T02:20:52;5.80;;;2.13;;
14048;SDS011;7099;53.922;10.728;2023-06-10T02:24:58;6.20;;;2.30;;
14048;SDS011;7099;53.922;10.728;2023-06-10T02:29:03;7.43;;;2.07;;
14048;SDS011;7099;53.922;10.728;2023-06-10T02:33:09;8.40;;;2.37;;
14048;SDS011;7099;53.922;10.728;2023-06-10T02:37:15;10.50;;;2.07;;
14048;SDS011;7099;53.922;10.728;2023-06-10T02:41:21;8.63;;;2.53;;
14048;SDS011;7099;53.922;10.728;2023-06-10T02:45:27;7.63;;;2.03;;
14048;SDS011;7099;53.922;10.728;2023-06-10T02:49:32;11.37;;;2.40;;
14048;SDS011;7099;53.922;10.728;2023-06-10T02:53:38;9.90;;;2.20;;
14048;SDS011;7099;53.922;10.728;2023-06-10T02:57:43;7.17;;;1.80;;
14048;SDS011;7099;53.922;10.728;2023-06-10T03:01:49;3.93;;;1.60;;
14048;SDS011;7099;53.922;10.728;2023-06-10T03:05:54;7.43;;;2.23;;
14048;SDS011;7099;53.922;10.728;2023-06-10T03:10:01;9.00;;;2.57;;
14048;SDS011;7099;53.922;10.728;2023-06-10T03:14:07;7.67;;;2.90;;
14048;SDS011;7099;53.922;10.728;2023-06-10T03:18:13;10.50;;;2.37;;
14048;SDS011;7099;53.922;10.728;2023-06-10T03:22:19;8.30;;;2.10;;
14048;SDS011;7099;53.922;10.728;2023-06-10T03:26:26;5.80;;;2.10;;
14048;SDS011;7099;53.922;10.728;2023-06-10T03:30:32;6.47;;;2.10;;
14048;SDS011;7099;53.922;10.728;2023-06-10T03:34:37;9.87;;;2.20;;
14048;SDS011;7099;53.922;10.728;2023-06-10T03:38:43;5.30;;;1.93;;
14048;SDS011;7099;53.922;10.728;2023-06-10T03:42:49;10.27;;;2.30;;
14048;SDS011;7099;53.922;10.728;2023-06-10T03:46:54;5.07;;;1.67;;
14048;SDS011;7099;53.922;10.728;2023-06-10T03:51:01;6.93;;;2.30;;
14048;SDS011;7099;53.922;10.728;2023-06-10T03:55:06;4.67;;;1.97;;
14048;SDS011;7099;53.922;10.728;2023-06-10T03:59:13;7.97;;;1.93;;
14048;SDS011;7099;53.922;10.728;2023-06-10T04:03:18;4.33;;;1.60;;
14048;SDS011;7099;53.922;10.728;2023-06-10T04:07:26;6.80;;;2.00;;
14048;SDS011;7099;53.922;10.728;2023-06-10T04:11:34;12.60;;;2.37;;
14048;SDS011;7099;53.922;10.728;2023-06-10T04:15:40;8.93;;;2.40;;
14048;SDS011;7099;53.922;10.728;2023-06-10T04:19:46;7.10;;;1.97;;
14048;SDS011;7099;53.922;10.728;2023-06-10T04:23:51;8.70;;;1.80;;
14048;SDS011;7099;53.922;10.728;2023-06-10T04:27:57;12.77;;;2.03;;
14048;SDS011;7099;53.922;10.728;2023-06-10T04:32:03;6.40;;;1.90;;
14048;SDS011;7099;53.922;10.728;2023-06-10T04:36:11;11.10;;;2.20;;
14048;SDS011;7099;53.922;10.728;2023-06-10T04:40:17;5.43;;;1.93;;
14048;SDS011;7099;53.922;10.728;2023-06-10T04:44:22;6.53;;;2.20;;
14048;SDS011;7099;53.922;10.728;2023-06-10T04:48:28;6.40;;;1.97;;
14048;SDS011;7099;53.922;10.728;2023-06-10T04:52:33;6.70;;;1.80;;
14048;SDS011;7099;53.922;10.728;2023-06-10T04:56:39;7.10;;;2.03;;
14048;SDS011;7099;53.922;10.728;2023-06-10T05:00:44;3.90;;;1.70;;
14048;SDS011;7099;53.922;10.728;2023-06-10T05:04:50;5.50;;;2.43;;
14048;SDS011;7099;53.922;10.728;2023-06-10T05:08:56;9.53;;;1.80;;
14048;SDS011;7099;53.922;10.728;2023-06-10T05:13:01;7.87;;;2.00;;
14048;SDS011;7099;53.922;10.728;2023-06-10T05:17:08;7.83;;;2.00;;
14048;SDS011;7099;53.922;10.728;2023-06-10T05:21:13;6.90;;;2.20;;
14048;SDS011;7099;53.922;10.728;2023-06-10T05:25:20;11.60;;;2.13;;
14048;SDS011;7099;53.922;10.728;2023-06-10T05:35:11;7.80;;;1.80;;
14048;SDS011;7099;53.922;10.728;2023-06-10T05:39:16;6.20;;;2.00;;
14048;SDS011;7099;53.922;10.728;2023-06-10T05:43:22;8.97;;;2.07;;
14048;SDS011;7099;53.922;10.728;2023-06-10T05:47:28;7.27;;;2.00;;
14048;SDS011;7099;53.922;10.728;2023-06-10T05:51:33;6.43;;;2.17;;
14048;SDS011;7099;53.922;10.728;2023-06-10T05:55:39;4.53;;;1.73;;
14048;SDS011;7099;53.922;10.728;2023-06-10T05:59:49;6.63;;;1.80;;
14048;SDS011;7099;53.922;10.728;2023-06-10T06:03:54;8.77;;;2.20;;
14048;SDS011;7099;53.922;10.728;2023-06-10T06:08:01;13.17;;;3.27;;
14048;SDS011;7099;53.922;10.728;2023-06-10T06:12:07;9.30;;;2.63;;
14048;SDS011;7099;53.922;10.728;2023-06-10T06:16:13;10.47;;;2.67;;
14048;SDS011;7099;53.922;10.728;2023-06-10T06:20:19;14.30;;;2.47;;
14048;SDS011;7099;53.922;10.728;2023-06-10T06:24:25;8.37;;;2.50;;
14048;SDS011;7099;53.922;10.728;2023-06-10T06:28:31;5.30;;;1.87;;
14048;SDS011;7099;53.922;10.728;2023-06-10T06:32:36;15.17;;;2.67;;
14048;SDS011;7099;53.922;10.728;2023-06-10T06:36:42;9.53;;;2.63;;
14048;SDS011;7099;53.922;10.728;2023-06-10T06:40:48;8.20;;;2.37;;
14048;SDS011;7099;53.922;10.728;2023-06-10T06:44:53;11.07;;;2.53;;
14048;SDS011;7099;53.922;10.728;2023-06-10T06:48:59;16.37;;;2.60;;
14048;SDS011;7099;53.922;10.728;2023-06-10T06:53:05;6.70;;;2.27;;
14048;SDS011;7099;53.922;10.728;2023-06-10T06:57:10;9.67;;;2.50;;
14048;SDS011;7099;53.922;10.728;2023-06-10T07:01:16;11.93;;;2.70;;
14048;SDS011;7099;53.922;10.728;2023-06-10T07:05:22;8.20;;;2.17;;
14048;SDS011;7099;53.922;10.728;2023-06-10T07:09:30;12.67;;;2.23;;
14048;SDS011;7099;53.922;10.728;2023-06-10T07:13:35;7.43;;;2.23;;
14048;SDS011;7099;53.922;10.728;2023-06-10T07:17:41;9.23;;;2.60;;
14048;SDS011;7099;53.922;10.728;2023-06-10T07:21:46;13.73;;;2.80;;
14048;SDS011;7099;53.922;10.728;2023-06-10T07:25:52;9.97;;;2.93;;
14048;SDS011;7099;53.922;10.728;2023-06-10T07:29:58;9.17;;;2.30;;
14048;SDS011;7099;53.922;10.728;2023-06-10T07:34:05;9.43;;;2.50;;
14048;SDS011;7099;53.922;10.728;2023-06-10T07:38:11;9.10;;;2.47;;
14048;SDS011;7099;53.922;10.728;2023-06-10T07:42:16;7.00;;;2.10;;
14048;SDS011;7099;53.922;10.728;2023-06-10T07:46:22;10.63;;;2.70;;
14048;SDS011;7099;53.922;10.728;2023-06-10T07:50:29;7.93;;;2.40;;
14048;SDS011;7099;53.922;10.728;2023-06-10T07:54:34;8.20;;;2.70;;
14048;SDS011;7099;53.922;10.728;2023-06-10T07:58:40;17.87;;;3.03;;
14048;SDS011;7099;53.922;10.728;2023-06-10T08:02:45;13.07;;;2.93;;
14048;SDS011;7099;53.922;10.728;2023-06-10T08:06:52;14.47;;;2.97;;
14048;SDS011;7099;53.922;10.728;2023-06-10T08:10:57;15.67;;;2.50;;
14048;SDS011;7099;53.922;10.728;2023-06-10T08:15:03;7.43;;;2.80;;
14048;SDS011;7099;53.922;10.728;2023-06-10T08:19:09;7.77;;;2.30;;
14048;SDS011;7099;53.922;10.728;2023-06-10T08:23:14;8.43;;;2.30;;
14048;SDS011;7099;53.922;10.728;2023-06-10T08:27:20;10.37;;;2.27;;
14048;SDS011;7099;53.922;10.728;2023-06-10T08:31:25;7.27;;;2.30;;
14048;SDS011;7099;53.922;10.728;2023-06-10T08:35:31;7.40;;;2.70;;
14048;SDS011;7099;53.922;10.728;2023-06-10T08:39:36;14.47;;;2.77;;
14048;SDS011;7099;53.922;10.728;2023-06-10T08:43:44;10.83;;;2.53;;
14048;SDS011;7099;53.922;10.728;2023-06-10T08:47:56;13.17;;;3.10;;
14048;SDS011;7099;53.922;10.728;2023-06-10T08:52:04;9.73;;;2.83;;
14048;SDS011;7099;53.922;10.728;2023-06-10T08:56:11;8.40;;;2.90;;
14048;SDS011;7099;53.922;10.728;2023-06-10T09:00:17;9.20;;;2.70;;
14048;SDS011;7099;53.922;10.728;2023-06-10T09:04:24;12.80;;;3.07;;
14048;SDS011;7099;53.922;10.728;2023-06-10T09:08:30;9.77;;;2.70;;
14048;SDS011;7099;53.922;10.728;2023-06-10T09:12:36;10.07;;;2.60;;
14048;SDS011;7099;53.922;10.728;2023-06-10T09:16:43;10.43;;;2.60;;
14048;SDS011;7099;53.922;10.728;2023-06-10T09:20:50;10.57;;;2.70;;
14048;SDS011;7099;53.922;10.728;2023-06-10T09:25:05;12.93;;;3.60;;
14048;SDS011;7099;53.922;10.728;2023-06-10T09:29:14;6.63;;;2.40;;
14048;SDS011;7099;53.922;10.728;2023-06-10T09:33:19;9.67;;;3.10;;
14048;SDS011;7099;53.922;10.728;2023-06-10T09:37:31;10.03;;;3.10;;
14048;SDS011;7099;53.922;10.728;2023-06-10T09:41:40;11.33;;;2.60;;
14048;SDS011;7099;53.922;10.728;2023-06-10T09:45:52;15.67;;;3.27;;
14048;SDS011;7099;53.922;10.728;2023-06-10T09:50:02;9.47;;;3.00;;
14048;SDS011;7099;53.922;10.728;2023-06-10T09:54:08;12.37;;;2.87;;
14048;SDS011;7099;53.922;10.728;2023-06-10T09:58:14;10.53;;;2.73;;
14048;SDS011;7099;53.922;10.728;2023-06-10T10:02:20;12.47;;;2.67;;
14048;SDS011;7099;53.922;10.728;2023-06-10T10:06:25;11.63;;;3.13;;
14048;SDS011;7099;53.922;10.728;2023-06-10T10:10:32;13.70;;;3.03;;
14048;SDS011;7099;53.922;10.728;2023-06-10T10:14:40;10.50;;;3.10;;
14048;SDS011;7099;53.922;10.728;2023-06-10T10:18:55;6.63;;;2.40;;
14048;SDS011;7099;53.922;10.728;2023-06-10T10:23:05;11.77;;;2.90;;
14048;SDS011;7099;53.922;10.728;2023-06-10T10:31:51;9.30;;;2.50;;
14048;SDS011;7099;53.922;10.728;2023-06-10T10:35:59;9.03;;;2.97;;
14048;SDS011;7099;53.922;10.728;2023-06-10T10:40:05;8.50;;;3.03;;
14048;SDS011;7099;53.922;10.728;2023-06-10T10:44:12;10.70;;;3.00;;
14048;SDS011;7099;53.922;10.728;2023-06-10T10:48:18;9.37;;;2.70;;
14048;SDS011;7099;53.922;10.728;2023-06-10T10:52:24;7.03;;;2.60;;
14048;SDS011;7099;53.922;10.728;2023-06-10T10:56:33;12.37;;;2.70;;
14048;SDS011;7099;53.922;10.728;2023-06-10T11:00:43;6.33;;;2.57;;
14048;SDS011;7099;53.922;10.728;2023-06-10T11:04:50;12.23;;;2.93;;
14048;SDS011;7099;53.922;10.728;2023-06-10T11:08:55;10.40;;;2.43;;
14048;SDS011;7099;53.922;10.728;2023-06-10T11:17:18;7.67;;;2.63;;
14048;SDS011;7099;53.922;10.728;2023-06-10T11:21:25;8.70;;;2.27;;
14048;SDS011;7099;53.922;10.728;2023-06-10T11:25:39;7.60;;;2.50;;
14048;SDS011;7099;53.922;10.728;2023-06-10T11:29:55;7.80;;;2.60;;
14048;SDS011;7099;53.922;10.728;2023-06-10T11:34:23;13.57;;;2.97;;
14048;SDS011;7099;53.922;10.728;2023-06-10T11:38:32;11.53;;;2.60;;
14048;SDS011;7099;53.922;10.728;2023-06-10T11:42:39;11.50;;;2.50;;
14048;SDS011;7099;53.922;10.728;2023-06-10T11:46:47;8.43;;;2.67;;
14048;SDS011;7099;53.922;10.728;2023-06-10T11:50:54;8.23;;;2.57;;
14048;SDS011;7099;53.922;10.728;2023-06-10T11:54:59;10.00;;;3.03;;
14048;SDS011;7099;53.922;10.728;2023-06-10T11:59:06;12.27;;;2.80;;
14048;SDS011;7099;53.922;10.728;2023-06-10T12:03:13;5.73;;;2.40;;
14048;SDS011;7099;53.922;10.728;2023-06-10T12:07:19;8.60;;;2.43;;
14048;SDS011;7099;53.922;10.728;2023-06-10T12:11:25;10.77;;;2.57;;
14048;SDS011;7099;53.922;10.728;2023-06-10T12:15:31;9.70;;;2.53;;
14048;SDS011;7099;53.922;10.728;2023-06-10T12:19:40;9.30;;;2.67;;
14048;SDS011;7099;53.922;10.728;2023-06-10T12:28:23;11.10;;;2.80;;
14048;SDS011;7099;53.922;10.728;2023-06-10T12:32:49;11.00;;;3.03;;
14048;SDS011;7099;53.922;10.728;2023-06-10T12:36:57;7.83;;;2.70;;
14048;SDS011;7099;53.922;10.728;2023-06-10T12:41:02;6.50;;;2.60;;
14048;SDS011;7099;53.922;10.728;2023-06-10T12:45:08;11.13;;;2.83;;
14048;SDS011;7099;53.922;10.728;2023-06-10T12:49:19;13.30;;;2.60;;
14048;SDS011;7099;53.922;10.728;2023-06-10T12:53:25;10.60;;;2.50;;
14048;SDS011;7099;53.922;10.728;2023-06-10T12:57:31;12.23;;;3.00;;
14048;SDS011;7099;53.922;10.728;2023-06-10T13:01:37;9.37;;;2.77;;
14048;SDS011;7099;53.922;10.728;2023-06-10T13:05:43;10.33;;;2.47;;
14048;SDS011;7099;53.922;10.728;2023-06-10T13:09:49;8.17;;;2.70;;
14048;SDS011;7099;53.922;10.728;2023-06-10T13:13:54;9.80;;;2.80;;
14048;SDS011;7099;53.922;10.728;2023-06-10T13:18:00;10.30;;;3.03;;
14048;SDS011;7099;53.922;10.728;2023-06-10T13:22:06;7.60;;;2.90;;
14048;SDS011;7099;53.922;10.728;2023-06-10T13:26:11;7.23;;;2.20;;
14048;SDS011;7099;53.922;10.728;2023-06-10T13:30:17;10.23;;;2.70;;
14048;SDS011;7099;53.922;10.728;2023-06-10T13:34:22;16.53;;;3.17;;
14048;SDS011;7099;53.922;10.728;2023-06-10T13:38:28;10.97;;;2.53;;
14048;SDS011;7099;53.922;10.728;2023-06-10T13:42:33;8.27;;;2.87;;
14048;SDS011;7099;53.922;10.728;2023-06-10T13:46:40;12.37;;;3.30;;
14048;SDS011;7099;53.922;10.728;2023-06-10T13:50:46;7.33;;;2.30;;
14048;SDS011;7099;53.922;10.728;2023-06-10T13:54:52;9.10;;;3.00;;
14048;SDS011;7099;53.922;10.728;2023-06-10T13:58:57;8.50;;;2.70;;
14048;SDS011;7099;53.922;10.728;2023-06-10T14:03:06;13.30;;;3.63;;
14048;SDS011;7099;53.922;10.728;2023-06-10T14:07:12;9.07;;;2.57;;
14048;SDS011;7099;53.922;10.728;2023-06-10T14:11:17;9.03;;;2.80;;
14048;SDS011;7099;53.922;10.728;2023-06-10T14:15:23;7.90;;;2.80;;
14048;SDS011;7099;53.922;10.728;2023-06-10T14:19:28;10.20;;;2.70;;
14048;SDS011;7099;53.922;10.728;2023-06-10T14:23:34;7.83;;;2.27;;
14048;SDS011;7099;53.922;10.728;2023-06-10T14:27:40;6.73;;;2.50;;
14048;SDS011;7099;53.922;10.728;2023-06-10T14:31:45;7.00;;;2.27;;
14048;SDS011;7099;53.922;10.728;2023-06-10T14:35:51;7.13;;;2.30;;
14048;SDS011;7099;53.922;10.728;2023-06-10T14:39:56;10.63;;;2.60;;
14048;SDS011;7099;53.922;10.728;2023-06-10T14:44:02;13.03;;;2.90;;
14048;SDS011;7099;53.922;10.728;2023-06-10T14:48:08;9.27;;;2.70;;
14048;SDS011;7099;53.922;10.728;2023-06-10T14:52:14;6.80;;;2.70;;
14048;SDS011;7099;53.922;10.728;2023-06-10T14:56:20;6.73;;;2.30;;
14048;SDS011;7099;53.922;10.728;2023-06-10T15:00:26;12.80;;;3.03;;
14048;SDS011;7099;53.922;10.728;2023-06-10T15:04:31;10.20;;;2.80;;
14048;SDS011;7099;53.922;10.728;2023-06-10T15:08:37;8.00;;;3.00;;
14048;SDS011;7099;53.922;10.728;2023-06-10T15:12:43;15.50;;;3.30;;
14048;SDS011;7099;53.922;10.728;2023-06-10T15:16:48;14.17;;;3.33;;
14048;SDS011;7099;53.922;10.728;2023-06-10T15:20:54;12.33;;;3.30;;
14048;SDS011;7099;53.922;10.728;2023-06-10T15:24:59;6.93;;;2.93;;
14048;SDS011;7099;53.922;10.728;2023-06-10T15:29:08;6.37;;;2.50;;
14048;SDS011;7099;53.922;10.728;2023-06-10T15:33:14;11.90;;;2.73;;
14048;SDS011;7099;53.922;10.728;2023-06-10T15:37:20;8.60;;;2.77;;
14048;SDS011;7099;53.922;10.728;2023-06-10T15:41:25;8.23;;;2.37;;
14048;SDS011;7099;53.922;10.728;2023-06-10T15:45:31;6.17;;;2.57;;
14048;SDS011;7099;53.922;10.728;2023-06-10T15:49:39;9.70;;;2.93;;
14048;SDS011;7099;53.922;10.728;2023-06-10T15:53:45;11.70;;;2.83;;
14048;SDS011;7099;53.922;10.728;2023-06-10T15:57:51;8.50;;;2.80;;
14048;SDS011;7099;53.922;10.728;2023-06-10T16:01:57;4.80;;;2.47;;
14048;SDS011;7099;53.922;10.728;2023-06-10T16:06:02;18.07;;;4.43;;
14048;SDS011;7099;53.922;10.728;2023-06-10T16:10:08;7.40;;;2.83;;
14048;SDS011;7099;53.922;10.728;2023-06-10T16:14:14;16.83;;;2.90;;
14048;SDS011;7099;53.922;10.728;2023-06-10T16:18:19;22.33;;;3.10;;
14048;SDS011;7099;53.922;10.728;2023-06-10T16:22:25;12.30;;;3.20;;
14048;SDS011;7099;53.922;10.728;2023-06-10T16:26:31;6.43;;;2.60;;
14048;SDS011;7099;53.922;10.728;2023-06-10T16:30:36;9.03;;;2.70;;
14048;SDS011;7099;53.922;10.728;2023-06-10T16:34:42;8.23;;;2.90;;
14048;SDS011;7099;53.922;10.728;2023-06-10T16:38:47;10.47;;;3.90;;
14048;SDS011;7099;53.922;10.728;2023-06-10T16:42:53;10.63;;;3.67;;
14048;SDS011;7099;53.922;10.728;2023-06-10T16:46:58;15.03;;;3.20;;
14048;SDS011;7099;53.922;10.728;2023-06-10T16:51:04;15.17;;;3.37;;
14048;SDS011;7099;53.922;10.728;2023-06-10T16:55:09;13.33;;;2.83;;
14048;SDS011;7099;53.922;10.728;2023-06-10T16:59:15;10.77;;;3.20;;
14048;SDS011;7099;53.922;10.728;2023-06-10T17:03:21;13.10;;;2.63;;
14048;SDS011;7099;53.922;10.728;2023-06-10T17:07:27;6.77;;;2.40;;
14048;SDS011;7099;53.922;10.728;2023-06-10T17:11:34;8.67;;;2.80;;
14048;SDS011;7099;53.922;10.728;2023-06-10T17:15:40;11.60;;;2.83;;
14048;SDS011;7099;53.922;10.728;2023-06-10T17:19:45;15.73;;;2.90;;
14048;SDS011;7099;53.922;10.728;2023-06-10T17:23:55;16.80;;;2.93;;
14048;SDS011;7099;53.922;10.728;2023-06-10T17:28:00;25.93;;;3.87;;
14048;SDS011;7099;53.922;10.728;2023-06-10T17:32:06;10.43;;;2.80;;
14048;SDS011;7099;53.922;10.728;2023-06-10T17:36:12;9.63;;;2.77;;
14048;SDS011;7099;53.922;10.728;2023-06-10T17:40:17;10.57;;;2.77;;
14048;SDS011;7099;53.922;10.728;2023-06-10T17:44:23;8.80;;;2.90;;
14048;SDS011;7099;53.922;10.728;2023-06-10T17:48:29;9.20;;;2.87;;
14048;SDS011;7099;53.922;10.728;2023-06-10T17:52:34;11.07;;;2.97;;
14048;SDS011;7099;53.922;10.728;2023-06-10T17:56:40;8.43;;;2.70;;
14048;SDS011;7099;53.922;10.728;2023-06-10T18:00:45;8.70;;;2.93;;
14048;SDS011;7099;53.922;10.728;2023-06-10T18:04:51;10.43;;;2.60;;
14048;SDS011;7099;53.922;10.728;2023-06-10T18:08:56;8.57;;;2.87;;
14048;SDS011;7099;53.922;10.728;2023-06-10T18:13:02;9.13;;;2.70;;
14048;SDS011;7099;53.922;10.728;2023-06-10T18:17:07;6.93;;;2.40;;
14048;SDS011;7099;53.922;10.728;2023-06-10T18:21:13;9.23;;;2.70;;
14048;SDS011;7099;53.922;10.728;2023-06-10T18:25:19;12.50;;;2.77;;
14048;SDS011;7099;53.922;10.728;2023-06-10T18:29:25;7.40;;;2.97;;
14048;SDS011;7099;53.922;10.728;2023-06-10T18:33:31;8.70;;;3.00;;
14048;SDS011;7099;53.922;10.728;2023-06-10T18:37:38;8.10;;;2.93;;
14048;SDS011;7099;53.922;10.728;2023-06-10T18:41:43;7.87;;;2.60;;
14048;SDS011;7099;53.922;10.728;2023-06-10T18:45:49;7.70;;;3.00;;
14048;SDS011;7099;53.922;10.728;2023-06-10T18:49:55;6.07;;;2.43;;
14048;SDS011;7099;53.922;10.728;2023-06-10T18:54:00;5.73;;;2.77;;
14048;SDS011;7099;53.922;10.728;2023-06-10T18:58:07;11.67;;;2.93;;
14048;SDS011;7099;53.922;10.728;2023-06-10T19:02:13;15.33;;;2.93;;
14048;SDS011;7099;53.922;10.728;2023-06-10T19:06:19;10.60;;;3.17;;
14048;SDS011;7099;53.922;10.728;2023-06-10T19:10:25;7.33;;;3.33;;
14048;SDS011;7099;53.922;10.728;2023-06-10T19:14:31;20.40;;;3.10;;
14048;SDS011;7099;53.922;10.728;2023-06-10T19:18:36;9.80;;;3.33;;
14048;SDS011;7099;53.922;10.728;2023-06-10T19:22:43;10.67;;;2.90;;
14048;SDS011;7099;53.922;10.728;2023-06-10T19:26:48;9.10;;;2.70;;
14048;SDS011;7099;53.922;10.728;2023-06-10T19:30:54;11.87;;;2.80;;
14048;SDS011;7099;53.922;10.728;2023-06-10T19:34:59;9.73;;;2.87;;
14048;SDS011;7099;53.922;10.728;2023-06-10T19:39:05;13.20;;;2.70;;
14048;SDS011;7099;53.922;10.728;2023-06-10T19:43:11;15.80;;;3.17;;
14048;SDS011;7099;53.922;10.728;2023-06-10T19:47:17;9.73;;;2.40;;
14048;SDS011;7099;53.922;10.728;2023-06-10T19:51:23;11.97;;;2.77;;
14048;SDS011;7099;53.922;10.728;2023-06-10T19:55:29;12.57;;;2.67;;
14048;SDS011;7099;53.922;10.728;2023-06-10T19:59:34;9.10;;;2.87;;
14048;SDS011;7099;53.922;10.728;2023-06-10T20:03:40;8.83;;;2.23;;
14048;SDS011;7099;53.922;10.728;2023-06-10T20:07:46;8.60;;;2.27;;
14048;SDS011;7099;53.922;10.728;2023-06-10T20:11:52;4.73;;;2.13;;
14048;SDS011;7099;53.922;10.728;2023-06-10T20:15:57;3.50;;;2.17;;
14048;SDS011;7099;53.922;10.728;2023-06-10T20:20:03;6.57;;;2.00;;
14048;SDS011;7099;53.922;10.728;2023-06-10T20:24:09;7.67;;;2.20;;
14048;SDS011;7099;53.922;10.728;2023-06-10T20:28:14;7.43;;;2.23;;
14048;SDS011;7099;53.922;10.728;2023-06-10T20:32:20;4.43;;;2.27;;
14048;SDS011;7099;53.922;10.728;2023-06-10T20:36:26;4.40;;;1.90;;
14048;SDS011;7099;53.922;10.728;2023-06-10T20:40:35;6.00;;;2.10;;
14048;SDS011;7099;53.922;10.728;2023-06-10T20:44:40;12.23;;;2.20;;
14048;SDS011;7099;53.922;10.728;2023-06-10T20:48:46;7.30;;;2.27;;
14048;SDS011;7099;53.922;10.728;2023-06-10T20:52:51;16.17;;;2.60;;
14048;SDS011;7099;53.922;10.728;2023-06-10T20:56:57;6.17;;;2.07;;
14048;SDS011;7099;53.922;10.728;2023-06-10T21:01:02;9.40;;;2.70;;
14048;SDS011;7099;53.922;10.728;2023-06-10T21:05:08;9.90;;;1.97;;
14048;SDS011;7099;53.922;10.728;2023-06-10T21:09:14;5.60;;;2.07;;
14048;SDS011;7099;53.922;10.728;2023-06-10T21:13:20;5.10;;;2.30;;
14048;SDS011;7099;53.922;10.728;2023-06-10T21:17:25;6.00;;;2.60;;
14048;SDS011;7099;53.922;10.728;2023-06-10T21:21:32;5.70;;;2.23;;
14048;SDS011;7099;53.922;10.728;2023-06-10T21:25:37;7.17;;;1.87;;
14048;SDS011;7099;53.922;10.728;2023-06-10T21:29:43;6.17;;;1.93;;
14048;SDS011;7099;53.922;10.728;2023-06-10T21:33:50;6.07;;;1.73;;
14048;SDS011;7099;53.922;10.728;2023-06-10T21:37:56;6.70;;;1.80;;
14048;SDS011;7099;53.922;10.728;2023-06-10T21:42:02;9.43;;;2.10;;
14048;SDS011;7099;53.922;10.728;2023-06-10T21:46:08;2.17;;;1.50;;
14048;SDS011;7099;53.922;10.728;2023-06-10T21:50:13;4.37;;;1.50;;
14048;SDS011;7099;53.922;10.728;2023-06-10T21:54:19;4.70;;;1.87;;
14048;SDS011;7099;53.922;10.728;2023-06-10T21:58:24;5.40;;;1.73;;
14048;SDS011;7099;53.922;10.728;2023-06-10T22:02:30;9.27;;;2.10;;
14048;SDS011;7099;53.922;10.728;2023-06-10T22:06:35;3.03;;;1.77;;
14048;SDS011;7099;53.922;10.728;2023-06-10T22:10:41;5.37;;;2.00;;
14048;SDS011;7099;53.922;10.728;2023-06-10T22:14:47;4.70;;;1.90;;
14048;SDS011;7099;53.922;10.728;2023-06-10T22:18:52;11.43;;;2.73;;
14048;SDS011;7099;53.922;10.728;2023-06-10T22:22:58;3.63;;;1.80;;
14048;SDS011;7099;53.922;10.728;2023-06-10T22:27:03;4.17;;;1.90;;
14048;SDS011;7099;53.922;10.728;2023-06-10T22:31:12;5.70;;;1.90;;
14048;SDS011;7099;53.922;10.728;2023-06-10T22:35:17;4.10;;;2.10;;
14048;SDS011;7099;53.922;10.728;2023-06-10T22:39:23;7.43;;;1.50;;
14048;SDS011;7099;53.922;10.728;2023-06-10T22:43:28;4.77;;;2.00;;
14048;SDS011;7099;53.922;10.728;2023-06-10T22:47:34;8.10;;;1.90;;
14048;SDS011;7099;53.922;10.728;2023-06-10T22:51:39;2.53;;;1.47;;
14048;SDS011;7099;53.922;10.728;2023-06-10T22:55:45;9.50;;;1.90;;
14048;SDS011;7099;53.922;10.728;2023-06-10T22:59:51;4.30;;;1.73;;
14048;SDS011;7099;53.922;10.728;2023-06-10T23:03:56;4.70;;;1.90;;
14048;SDS011;7099;53.922;10.728;2023-06-10T23:08:02;7.10;;;2.63;;
14048;SDS011;7099;53.922;10.728;2023-06-10T23:12:08;3.27;;;1.67;;
14048;SDS011;7099;53.922;10.728;2023-06-10T23:16:15;5.50;;;1.90;;
14048;SDS011;7099;53.922;10.728;2023-06-10T23:20:20;7.63;;;1.93;;
14048;SDS011;7099;53.922;10.728;2023-06-10T23:24:27;5.83;;;2.10;;
14048;SDS011;7099;53.922;10.728;2023-06-10T23:28:36;7.63;;;1.80;;
14048;SDS011;7099;53.922;10.728;2023-06-10T23:32:42;2.50;;;1.60;;
14048;SDS011;7099;53.922;10.728;2023-06-10T23:36:48;4.67;;;1.70;;
14048;SDS011;7099;53.922;10.728;2023-06-10T23:40:57;2.30;;;1.70;;
14048;SDS011;7099;53.922;10.728;2023-06-10T23:45:02;3.13;;;1.77;;
14048;SDS011;7099;53.922;10.728;2023-06-10T23:49:08;5.93;;;1.70;;
14048;SDS011;7099;53.922;10.728;2023-06-10T23:53:14;4.80;;;1.73;;
14048;SDS011;7099;53.922;10.728;2023-06-10T23:57:19;4.30;;;1.87;;
